GCHI

Hierro Airport

El Hierro Island, Spain
METAR GCHI 161030Z 02010KT 340V050 9999 FEW022 22/17 Q1025
Observed Flight Rules
Dec-16 @ 10:30 UTC (40 minutes ago) Visual Flight Rules
Wind Visibility Clouds
20° at 10 knots 10,000+ meters
  • Few at 2,200' AGL
Temperatures Readings
Current 22°C / 72°F
Dewpoint 17°C / 63°F
Humidity 73%
Altimeter 30.27" Hg
Pressure 1025 hPa
Elevation 30
METAR GCHI 161030Z 02010KT 340V050 9999 FEW022 22/17 Q1025
Observed Flight Rules
Dec-16 @ 10:30 UTC
(40 minutes ago)
VFR
Wind Visibility
20° at 10 knots 10,000+ meters
Clouds
  • Few at 2,200' AGL
Temperature Dewpoint
22°C / 72°F 17°C / 63°F
Humidity Altimeter Pressure
73% 30.27" Hg 1025 hPa